Time;durP1;ratioP1;P1;durP2;ratioP2;P2;SDS_P1;SDS_P2;PMS_P1;PMS_P2;Temp;Humidity;BMP_temperature;BMP_pressure;BME280_temperature;BME280_humidity;BME280_pressure;Samples;Min_cycle;Max_cycle;Signal;HPM_P1;HPM_P2
2023/03/24 00:05:02;;;;;;;16.90;9.30;;;;;;;16.88;44.81;98464.15;223744;181;137206;-74
2023/03/24 00:10:13;;;;;;;16.20;9.80;;;;;;;16.88;44.83;98461.48;223590;181;148821;-73
2023/03/24 00:15:20;;;;;;;14.00;8.20;;;;;;;16.87;44.73;98466.75;223580;181;139283;-73
2023/03/24 00:20:25;;;;;;;13.70;8.70;;;;;;;16.86;44.82;98466.00;222585;181;136882;-74
2023/03/24 00:25:35;;;;;;;23.00;11.70;;;;;;;16.79;45.40;98463.62;223688;181;147238;-74
2023/03/24 00:30:40;;;;;;;18.70;11.40;;;;;;;16.58;46.36;98462.23;223571;182;138955;-73
2023/03/24 00:35:44;;;;;;;23.00;12.40;;;;;;;16.38;46.87;98459.43;223639;182;137198;-73
2023/03/24 00:40:49;;;;;;;23.10;13.80;;;;;;;16.21;47.32;98460.35;223599;179;147183;-72
2023/03/24 00:46:09;;;;;;;26.40;14.60;;;;;;;16.13;47.43;98460.23;223613;181;139181;-72
2023/03/24 00:51:13;;;;;;;19.50;12.80;;;;;;;16.08;47.56;98453.57;222013;182;137485;-73
2023/03/24 00:56:18;;;;;;;18.00;11.10;;;;;;;16.07;47.98;98448.40;223730;182;147463;-73
2023/03/24 01:01:21;;;;;;;18.30;10.80;;;;;;;16.03;48.54;98445.59;223616;181;140068;-72
2023/03/24 01:06:25;;;;;;;19.90;12.50;;;;;;;15.97;48.93;98443.85;223653;181;138025;-71
2023/03/24 01:11:36;;;;;;;22.70;12.00;;;;;;;15.84;50.00;98440.98;223653;182;147104;-72
2023/03/24 01:16:41;;;;;;;19.30;12.10;;;;;;;15.66;50.78;98440.30;223651;182;138767;-73
2023/03/24 01:21:44;;;;;;;21.20;13.00;;;;;;;15.48;51.52;98440.29;223623;183;137980;-73
2023/03/24 01:26:48;;;;;;;21.70;13.80;;;;;;;15.33;52.10;98431.86;223646;183;148226;-72
2023/03/24 01:31:53;;;;;;;26.40;13.40;;;;;;;15.17;52.49;98425.75;223678;182;138970;-72
2023/03/24 01:36:58;;;;;;;25.50;13.00;;;;;;;15.10;52.88;98426.42;223700;181;137282;-72
2023/03/24 01:42:01;;;;;;;30.20;14.10;;;;;;;15.00;52.78;98422.02;223675;182;148206;-73
2023/03/24 01:47:07;;;;;;;33.20;13.00;;;;;;;14.90;52.85;98423.20;223643;182;138732;-72
2023/03/24 01:52:17;;;;;;;30.20;13.10;;;;;;;14.86;53.36;98426.08;223621;182;137409;-72
2023/03/24 01:57:34;;;;;;;30.50;12.70;;;;;;;14.81;53.72;98429.41;223624;182;147639;-72
2023/03/24 02:02:44;;;;;;;19.40;11.90;;;;;;;14.75;54.38;98425.64;223649;182;138195;-72
2023/03/24 02:08:01;;;;;;;24.50;11.70;;;;;;;14.66;54.30;98424.96;223617;182;137683;-71
2023/03/24 02:13:05;;;;;;;;;;;;;;;14.61;54.72;98421.17;223662;182;148418;-72
2023/03/24 02:18:24;;;;;;;25.10;11.80;;;;;;;14.58;54.81;98420.20;223722;181;138411;-71
2023/03/24 02:23:30;;;;;;;20.00;10.50;;;;;;;14.56;54.63;98414.86;223713;182;138304;-71
2023/03/24 02:28:52;;;;;;;22.40;10.40;;;;;;;14.54;54.59;98407.88;223823;181;148346;-72
2023/03/24 02:34:10;;;;;;;23.40;10.10;;;;;;;14.54;54.68;98409.34;223756;181;142011;-72
2023/03/24 02:39:28;;;;;;;21.20;10.40;;;;;;;14.55;54.95;98406.33;223654;182;137558;-71
2023/03/24 02:44:38;;;;;;;19.20;10.80;;;;;;;14.55;55.22;98401.36;223672;182;147705;-71
2023/03/24 02:49:49;;;;;;;22.90;10.50;;;;;;;14.50;55.16;98400.94;223712;182;139662;-71
2023/03/24 02:55:15;;;;;;;19.20;10.00;;;;;;;14.49;55.56;98395.84;223706;182;137267;-72
2023/03/24 03:00:32;;;;;;;22.00;10.10;;;;;;;14.48;55.46;98393.20;223754;182;147566;-72
2023/03/24 03:05:51;;;;;;;18.20;9.90;;;;;;;14.49;56.23;98388.52;223713;182;138397;-71
2023/03/24 03:10:57;;;;;;;17.40;10.00;;;;;;;14.47;56.74;98385.48;223735;181;137384;-71
2023/03/24 03:16:09;;;;;;;19.50;10.00;;;;;;;14.43;57.02;98381.46;223752;182;147426;-71
2023/03/24 03:21:17;;;;;;;21.30;10.40;;;;;;;14.41;57.27;98370.06;223744;181;138248;-73
2023/03/24 03:26:27;;;;;;;18.70;11.00;;;;;;;14.38;57.66;98361.73;223772;181;137780;-73
2023/03/24 03:31:40;;;;;;;22.70;11.90;;;;;;;14.37;57.61;98370.75;222973;182;148969;-73
2023/03/24 03:36:55;;;;;;;24.50;11.60;;;;;;;14.34;57.54;98369.98;223690;182;138563;-73
2023/03/24 03:41:59;;;;;;;30.80;10.70;;;;;;;14.30;57.40;98378.02;223664;182;136915;-73
2023/03/24 03:47:03;;;;;;;20.80;10.40;;;;;;;14.27;57.45;98375.76;223642;182;147158;-74
2023/03/24 03:52:18;;;;;;;23.00;10.00;;;;;;;14.29;57.75;98376.47;223693;182;138684;-71
2023/03/24 03:57:22;;;;;;;59.40;38.40;;;;;;;14.35;58.15;98373.77;223650;182;137834;-73
2023/03/24 04:03:21;;;;;;;15.90;8.50;;;;;;;14.38;57.75;98371.06;223685;182;147490;-73
2023/03/24 04:08:44;;;;;;;26.10;15.60;;;;;;;14.41;57.82;98358.14;223660;182;138589;-74
2023/03/24 04:14:14;;;;;;;20.30;10.40;;;;;;;14.41;58.57;98352.21;223699;182;137842;-72
2023/03/24 04:19:42;;;;;;;20.00;10.00;;;;;;;14.38;58.52;98350.89;223641;182;148037;-73
2023/03/24 04:24:50;;;;;;;26.30;11.60;;;;;;;14.34;58.77;98354.98;223718;182;139839;-73
2023/03/24 04:30:16;;;;;;;22.10;12.10;;;;;;;14.27;58.75;98356.85;223707;182;138390;-73
2023/03/24 04:35:39;;;;;;;89.60;58.70;;;;;;;14.24;58.74;98360.73;223668;182;148214;-69
2023/03/24 04:41:00;;;;;;;27.60;14.30;;;;;;;14.23;58.77;98359.01;223615;181;138390;-75
2023/03/24 04:46:06;;;;;;;24.90;14.10;;;;;;;14.20;58.76;98359.77;223747;182;137634;-75
2023/03/24 04:51:18;;;;;;;28.30;14.60;;;;;;;14.19;58.70;98363.10;223583;182;148288;-75
2023/03/24 04:56:51;;;;;;;23.40;13.10;;;;;;;14.14;58.84;98366.34;223684;182;138828;-75
2023/03/24 05:02:21;;;;;;;26.30;14.60;;;;;;;14.09;59.09;98372.38;223694;182;138004;-75
2023/03/24 05:07:31;;;;;;;38.20;20.60;;;;;;;14.06;59.99;98375.08;223655;182;147981;-73
2023/03/24 05:12:37;;;;;;;29.50;15.80;;;;;;;14.05;60.82;98378.95;223671;182;139009;-75
2023/03/24 05:17:55;;;;;;;21.90;12.90;;;;;;;14.00;61.32;98385.80;223719;182;138143;-74
2023/03/24 05:23:00;;;;;;;21.10;12.70;;;;;;;13.96;62.10;98387.37;223704;182;149019;-74
2023/03/24 05:28:04;;;;;;;23.40;13.20;;;;;;;13.96;62.53;98389.67;223732;182;138981;-74
2023/03/24 05:33:08;;;;;;;20.70;12.70;;;;;;;13.94;63.02;98385.27;223697;182;137791;-75
2023/03/24 05:38:12;;;;;;;24.90;13.50;;;;;;;14.03;63.56;98389.89;223711;182;147236;-75
2023/03/24 05:43:18;;;;;;;21.80;12.10;;;;;;;14.11;63.70;98388.05;223731;182;138280;-75
2023/03/24 05:48:31;;;;;;;21.50;12.80;;;;;;;14.16;64.06;98393.84;223696;181;138115;-75
2023/03/24 05:53:51;;;;;;;20.50;13.10;;;;;;;14.19;64.45;98390.70;223728;182;147732;-75
2023/03/24 05:59:11;;;;;;;22.80;12.90;;;;;;;14.17;64.62;98394.45;223615;182;139085;-75
2023/03/24 06:04:47;;;;;;;22.20;13.30;;;;;;;14.17;65.17;98397.16;223670;182;138163;-74
2023/03/24 06:09:56;;;;;;;22.00;13.90;;;;;;;14.15;64.93;98398.05;223849;182;148114;-75
2023/03/24 06:15:00;;;;;;;21.80;13.60;;;;;;;14.13;65.16;98393.81;223733;182;141444;-75
2023/03/24 06:20:12;;;;;;;19.40;12.20;;;;;;;14.17;65.38;98401.06;223701;182;137163;-75
2023/03/24 06:25:36;;;;;;;17.70;11.70;;;;;;;14.20;65.36;98401.50;223662;181;147286;-75
2023/03/24 06:30:49;;;;;;;19.60;12.00;;;;;;;14.30;65.67;98399.94;223653;181;138310;-76
2023/03/24 06:36:00;;;;;;;17.10;12.80;;;;;;;14.43;65.89;98401.70;223618;182;138194;-75
2023/03/24 06:41:06;;;;;;;18.20;11.00;;;;;;;14.53;64.96;98398.88;223693;178;146739;-76
2023/03/24 06:46:10;;;;;;;16.20;10.90;;;;;;;14.66;63.00;98389.14;223646;182;139271;-75
2023/03/24 06:51:16;;;;;;;15.50;9.80;;;;;;;14.81;62.31;98382.08;223759;182;137241;-75
2023/03/24 06:56:20;;;;;;;20.90;10.60;;;;;;;14.91;61.66;98378.47;223703;182;147793;-74
2023/03/24 07:01:31;;;;;;;13.60;8.90;;;;;;;15.03;61.04;98377.42;223715;181;139243;-74
2023/03/24 07:06:53;;;;;;;13.10;8.40;;;;;;;15.19;60.49;98374.49;223652;182;138868;-74
2023/03/24 07:12:20;;;;;;;11.20;8.00;;;;;;;15.31;60.07;98377.46;223682;183;147631;-75
2023/03/24 07:17:24;;;;;;;8.50;6.50;;;;;;;15.46;59.59;98373.67;223557;182;138288;-75
2023/03/24 07:22:42;;;;;;;11.90;6.90;;;;;;;15.57;59.12;98373.66;223784;181;138508;-73
2023/03/24 07:28:04;;;;;;;11.00;7.00;;;;;;;15.72;58.93;98372.99;223686;181;284764;-73
2023/03/24 07:33:11;;;;;;;9.80;6.50;;;;;;;15.90;58.68;98369.88;223717;182;139040;-73
2023/03/24 07:38:16;;;;;;;10.40;6.10;;;;;;;16.06;58.16;98366.58;223639;181;137148;-73
2023/03/24 07:43:21;;;;;;;9.80;6.30;;;;;;;16.14;57.87;98359.60;223749;182;146853;-76
2023/03/24 07:48:48;;;;;;;9.20;6.30;;;;;;;16.22;57.68;98358.73;223611;182;138978;-76
2023/03/24 07:53:52;;;;;;;9.20;6.20;;;;;;;16.34;57.46;98353.09;223571;182;137601;-77
2023/03/24 07:59:22;;;;;;;10.80;6.40;;;;;;;16.48;57.08;98347.52;223712;182;147014;-76
2023/03/24 08:04:27;;;;;;;13.00;6.40;;;;;;;16.60;56.67;98337.69;223734;181;138129;-77
2023/03/24 08:09:39;;;;;;;11.90;6.30;;;;;;;16.73;56.22;98328.89;223726;182;137267;-76
2023/03/24 08:14:44;;;;;;;10.20;6.30;;;;;;;16.87;55.88;98315.91;223613;182;148022;-73
2023/03/24 08:19:47;;;;;;;12.10;6.40;;;;;;;16.97;55.69;98302.55;223732;182;138358;-76
2023/03/24 08:25:02;;;;;;;10.20;6.30;;;;;;;17.09;55.25;98297.02;223760;182;136728;-75
2023/03/24 08:30:09;;;;;;;8.80;6.50;;;;;;;17.22;54.66;98291.92;223714;182;147839;-75
2023/03/24 08:35:14;;;;;;;11.10;6.00;;;;;;;17.35;54.03;98289.95;223645;182;138321;-76
2023/03/24 08:40:22;;;;;;;11.90;5.80;;;;;;;17.48;53.30;98287.38;223765;182;137605;-73
2023/03/24 08:45:29;;;;;;;10.00;6.10;;;;;;;17.63;53.17;98285.46;223603;181;148602;-75
2023/03/24 08:50:36;;;;;;;9.00;5.90;;;;;;;17.79;52.20;98282.53;223677;182;140795;-74
2023/03/24 08:55:42;;;;;;;8.90;5.50;;;;;;;17.91;51.52;98280.41;223685;182;136854;-75
2023/03/24 09:00:46;;;;;;;8.30;5.20;;;;;;;18.00;50.94;98278.91;223722;181;147383;-74
2023/03/24 09:05:50;;;;;;;12.80;6.50;;;;;;;18.11;50.73;98271.43;223728;181;138590;-73
2023/03/24 09:10:53;;;;;;;9.30;5.20;;;;;;;18.29;50.51;98264.19;223857;182;139736;-73
2023/03/24 09:15:59;;;;;;;10.70;5.20;;;;;;;18.52;49.85;98257.19;223660;182;147061;-73
2023/03/24 09:21:04;;;;;;;14.70;5.40;;;;;;;18.71;48.93;98246.02;223694;181;138815;-76
2023/03/24 09:26:08;;;;;;;6.80;5.10;;;;;;;18.82;48.73;98238.23;223706;181;138519;-76
2023/03/24 09:31:13;;;;;;;9.50;5.00;;;;;;;18.92;48.38;98233.52;223655;181;147364;-73
2023/03/24 09:36:18;;;;;;;11.60;5.50;;;;;;;19.02;47.75;98226.45;223650;182;138633;-73
2023/03/24 09:41:29;;;;;;;9.40;4.80;;;;;;;19.12;47.54;98215.66;223647;181;139518;-74
2023/03/24 09:46:41;;;;;;;9.20;4.30;;;;;;;19.23;47.06;98213.38;223144;181;147493;-75
2023/03/24 09:51:45;;;;;;;5.80;4.20;;;;;;;19.30;46.50;98203.93;222679;182;139260;-75
2023/03/24 09:56:50;;;;;;;4.70;4.10;;;;;;;19.42;46.58;98197.56;223702;182;136791;-76
2023/03/24 10:01:55;;;;;;;8.50;4.00;;;;;;;19.60;46.35;98182.81;223667;181;147465;-75
2023/03/24 10:07:08;;;;;;;7.30;4.30;;;;;;;19.82;45.31;98174.77;223698;182;138562;-75
2023/03/24 10:12:17;;;;;;;5.20;4.00;;;;;;;20.05;44.62;98170.71;223669;181;137680;-75
2023/03/24 10:17:41;;;;;;;5.90;4.50;;;;;;;20.23;43.99;98166.09;223715;182;148156;-75
2023/03/24 10:22:55;;;;;;;6.90;3.50;;;;;;;20.48;43.58;98152.31;223702;182;138669;-75
2023/03/24 10:28:10;;;;;;;8.30;4.10;;;;;;;20.80;43.50;98145.35;223752;182;137164;-75
2023/03/24 10:33:14;;;;;;;6.30;4.50;;;;;;;20.99;42.32;98133.02;223759;182;147475;-76
2023/03/24 10:38:21;;;;;;;7.20;4.10;;;;;;;21.23;41.93;98120.67;223717;182;139093;-76
2023/03/24 10:43:26;;;;;;;5.80;3.90;;;;;;;21.44;41.47;98114.34;223785;182;137199;-76
2023/03/24 10:48:39;;;;;;;8.10;3.80;;;;;;;21.65;41.23;98109.48;223691;182;148047;-76
2023/03/24 10:53:47;;;;;;;7.80;3.90;;;;;;;21.83;40.89;98105.61;223535;183;138823;-76
2023/03/24 10:58:51;;;;;;;9.80;3.60;;;;;;;21.85;39.22;98095.45;223795;182;137113;-76
2023/03/24 11:04:00;;;;;;;6.70;3.60;;;;;;;21.90;39.10;98096.09;223713;182;147205;-75
2023/03/24 11:09:37;;;;;;;4.40;3.10;;;;;;;22.08;38.39;98088.29;223688;182;138751;-75
2023/03/24 11:14:44;;;;;;;7.10;3.90;;;;;;;22.30;37.80;98087.17;223757;182;136536;-76
2023/03/24 11:19:53;;;;;;;4.50;3.30;;;;;;;22.39;37.42;98081.38;223737;182;147130;-76
2023/03/24 11:24:56;;;;;;;6.50;3.30;;;;;;;22.49;36.26;98070.70;223660;182;139275;-76
2023/03/24 11:30:00;;;;;;;4.60;2.80;;;;;;;22.52;35.42;98064.17;223744;182;136971;-75
2023/03/24 11:35:16;;;;;;;5.10;3.00;;;;;;;22.52;33.57;98059.52;223694;182;146957;-75
2023/03/24 11:40:23;;;;;;;60.10;43.60;;;;;;;22.53;33.55;98052.23;223545;182;138893;-72
2023/03/24 11:45:43;;;;;;;8.60;3.80;;;;;;;22.51;33.98;98041.40;223640;181;137758;-76
2023/03/24 11:50:47;;;;;;;5.50;2.90;;;;;;;22.41;33.61;98037.27;223697;182;147328;-77
2023/03/24 11:55:59;;;;;;;8.40;2.60;;;;;;;22.27;33.00;98031.00;223738;182;138967;-77
2023/03/24 12:01:11;;;;;;;5.70;2.80;;;;;;;22.22;33.04;98027.29;223609;182;137627;-77
2023/03/24 12:06:33;;;;;;;3.80;2.30;;;;;;;22.33;33.11;98025.52;223680;181;147635;-77
2023/03/24 12:11:46;;;;;;;6.00;2.80;;;;;;;22.45;33.01;98018.87;223596;181;139898;-74
2023/03/24 12:17:02;;;;;;;5.80;2.70;;;;;;;22.62;33.60;98010.58;223721;182;136927;-75
2023/03/24 12:22:38;;;;;;;6.60;3.40;;;;;;;22.79;32.62;98007.30;223766;182;147644;-74
2023/03/24 12:28:24;;;;;;;6.80;2.80;;;;;;;22.74;32.32;98005.36;223673;182;138976;-73
2023/03/24 12:33:39;;;;;;;5.90;2.60;;;;;;;22.61;32.85;98002.21;223753;182;136787;-74
2023/03/24 12:39:00;;;;;;;15.70;12.90;;;;;;;22.50;32.35;97997.05;223672;182;149368;-73
2023/03/24 12:44:18;;;;;;;7.50;3.00;;;;;;;22.42;32.22;97995.02;223598;181;138209;-75
2023/03/24 12:49:25;;;;;;;2.80;2.30;;;;;;;22.36;32.20;97998.14;223705;182;137210;-75
2023/03/24 12:55:03;;;;;;;3.80;2.60;;;;;;;22.29;32.08;97990.45;223714;182;147787;-75
2023/03/24 13:00:18;;;;;;;4.90;2.30;;;;;;;22.16;31.88;97985.30;223663;181;138370;-76
2023/03/24 13:05:31;;;;;;;5.80;2.20;;;;;;;22.16;31.77;97982.50;223692;182;137278;-76
2023/03/24 13:10:40;;;;;;;5.70;2.20;;;;;;;22.15;31.11;97975.34;223726;182;148662;-73
2023/03/24 13:15:49;;;;;;;42.50;29.30;;;;;;;22.10;31.26;97972.57;223630;181;138200;-72
2023/03/24 13:21:19;;;;;;;12.20;2.90;;;;;;;22.02;31.00;97978.84;223775;181;137083;-73
2023/03/24 13:26:23;;;;;;;4.60;2.20;;;;;;;21.94;31.22;97971.26;223606;182;147511;-73
2023/03/24 13:31:30;;;;;;;3.60;2.10;;;;;;;21.88;31.35;97963.16;223600;182;138415;-73
2023/03/24 13:36:47;;;;;;;4.20;2.10;;;;;;;21.85;31.51;97957.97;223638;182;137350;-73
2023/03/24 13:41:54;;;;;;;3.70;2.20;;;;;;;21.77;31.59;97955.63;223674;181;148039;-74
2023/03/24 13:47:19;;;;;;;6.80;2.40;;;;;;;21.69;31.91;97944.60;223707;182;139226;-74
2023/03/24 13:52:36;;;;;;;6.90;2.00;;;;;;;21.66;32.28;97940.67;223691;181;137623;-73
2023/03/24 13:57:49;;;;;;;6.00;3.60;;;;;;;21.60;32.23;97938.80;223477;182;149243;-76
2023/03/24 14:02:54;;;;;;;4.50;2.20;;;;;;;21.57;32.62;97943.55;223584;181;139324;-74
2023/03/24 14:07:58;;;;;;;4.40;2.30;;;;;;;21.54;32.95;97941.77;223646;182;138283;-74
2023/03/24 14:13:10;;;;;;;3.50;2.30;;;;;;;21.49;33.20;97942.42;223502;181;150689;-74
2023/03/24 14:18:23;;;;;;;4.60;2.40;;;;;;;21.45;33.52;97947.66;223615;181;139075;-75
2023/03/24 14:23:39;;;;;;;3.40;2.20;;;;;;;21.35;33.72;97945.67;223662;182;137062;-74
2023/03/24 14:28:54;;;;;;;4.40;2.40;;;;;;;21.26;34.58;97938.52;223705;182;149085;-72
2023/03/24 14:34:01;;;;;;;17.40;10.90;;;;;;;21.19;34.47;97934.23;222351;181;138825;-73
2023/03/24 14:39:35;;;;;;;4.50;3.30;;;;;;;21.12;34.73;97921.95;223078;181;137502;-74
2023/03/24 14:44:48;;;;;;;4.40;2.60;;;;;;;21.08;34.44;97921.35;223649;182;148998;-74
2023/03/24 14:49:53;;;;;;;4.80;2.30;;;;;;;21.05;34.83;97913.62;223622;181;138373;-74
2023/03/24 14:55:03;;;;;;;4.00;2.40;;;;;;;20.99;34.98;97900.69;223607;181;137325;-66
2023/03/24 15:00:13;;;;;;;6.30;2.40;;;;;;;20.95;35.06;97897.75;223608;180;149142;-73
2023/03/24 15:05:28;;;;;;;4.40;2.20;;;;;;;20.94;34.55;97887.80;223668;181;138692;-74
2023/03/24 15:10:40;;;;;;;5.50;1.90;;;;;;;20.92;34.65;97881.70;223738;182;137084;-70
2023/03/24 15:15:46;;;;;;;4.10;2.40;;;;;;;20.91;34.67;97875.94;223705;182;149782;-70
2023/03/24 15:20:51;;;;;;;6.30;2.20;;;;;;;20.91;34.53;97867.57;223659;182;138678;-73
2023/03/24 15:25:54;;;;;;;3.00;2.30;;;;;;;20.92;34.54;97862.61;223427;182;137674;-74
2023/03/24 15:31:00;;;;;;;5.60;2.40;;;;;;;20.92;34.63;97862.02;223332;181;149017;-74
2023/03/24 15:36:13;;;;;;;4.30;2.40;;;;;;;20.92;34.46;97858.84;223775;182;139195;-75
2023/03/24 15:41:21;;;;;;;39.00;26.70;;;;;;;20.94;34.51;97857.50;223682;182;137090;-74
2023/03/24 15:46:28;;;;;;;23.30;16.70;;;;;;;20.94;34.54;97859.30;223592;182;149602;-72
2023/03/24 15:51:56;;;;;;;9.00;3.30;;;;;;;20.94;34.35;97863.08;223616;182;138190;-74
2023/03/24 15:57:21;;;;;;;4.70;3.30;;;;;;;20.92;34.30;97865.02;223514;182;136648;-74
2023/03/24 16:02:54;;;;;;;6.60;3.40;;;;;;;20.89;34.56;97861.77;223638;182;148932;-75
2023/03/24 16:08:02;;;;;;;9.50;3.50;;;;;;;20.85;34.65;97865.59;223628;182;139103;-75
2023/03/24 16:13:20;;;;;;;7.10;3.20;;;;;;;20.84;34.98;97865.20;223453;183;137057;-77
2023/03/24 16:18:36;;;;;;;6.60;3.30;;;;;;;20.81;34.99;97862.17;223567;183;149493;-76
2023/03/24 16:23:42;;;;;;;9.50;3.90;;;;;;;20.77;35.32;97859.88;223543;183;137611;-76
2023/03/24 16:28:47;;;;;;;8.80;3.50;;;;;;;20.75;35.33;97863.84;223642;183;137695;-75
2023/03/24 16:33:51;;;;;;;7.60;4.10;;;;;;;20.70;35.35;97869.64;223592;182;148956;-75
2023/03/24 16:39:00;;;;;;;6.50;3.50;;;;;;;20.66;35.69;97878.24;223519;183;139199;-74
2023/03/24 16:44:04;;;;;;;7.70;4.30;;;;;;;20.61;35.86;97884.59;223485;183;137321;-77
2023/03/24 16:49:12;;;;;;;80.10;65.70;;;;;;;20.56;36.01;97890.88;223546;183;150016;-71
2023/03/24 16:54:16;;;;;;;13.40;5.10;;;;;;;20.53;36.38;97901.57;223405;183;139936;-75
2023/03/24 16:59:21;;;;;;;5.50;3.60;;;;;;;20.46;36.24;97903.66;223542;182;138202;-75
2023/03/24 17:04:26;;;;;;;6.90;3.60;;;;;;;20.37;36.19;97922.67;223532;183;149768;-79
2023/03/24 17:09:31;;;;;;;6.40;3.00;;;;;;;20.23;36.31;97927.70;223574;183;139401;-76
2023/03/24 17:14:34;;;;;;;7.20;3.50;;;;;;;20.14;36.64;97938.23;223573;183;136781;-78
2023/03/24 17:19:40;;;;;;;7.10;3.40;;;;;;;19.96;37.59;97947.67;223522;183;149366;-79
2023/03/24 17:24:46;;;;;;;5.80;2.80;;;;;;;19.80;38.75;97945.47;223471;183;138375;-76
2023/03/24 17:29:50;;;;;;;3.80;2.40;;;;;;;19.67;39.51;97945.73;223452;183;137492;-78
2023/03/24 17:34:54;;;;;;;4.10;2.70;;;;;;;19.57;39.75;97950.33;223525;183;149251;-76
2023/03/24 17:39:57;;;;;;;5.50;2.60;;;;;;;19.46;40.15;97955.50;223519;182;138378;-80
2023/03/24 17:45:02;;;;;;;8.80;5.30;;;;;;;19.35;40.44;97954.27;223586;180;137727;-76
2023/03/24 17:50:08;;;;;;;6.70;3.00;;;;;;;19.27;40.59;97955.54;223586;183;149868;-77
2023/03/24 17:55:12;;;;;;;;;;;;;;;19.20;40.91;97955.91;223485;183;138856;-77
2023/03/24 18:00:16;;;;;;;4.60;2.90;;;;;;;19.09;41.59;97963.52;223620;182;133900;-76
2023/03/24 18:05:23;;;;;;;4.50;3.00;;;;;;;18.88;42.70;97964.81;223588;182;149210;-74
2023/03/24 18:10:26;;;;;;;4.00;3.30;;;;;;;18.76;43.44;97965.90;223607;182;138442;-77
2023/03/24 18:15:31;;;;;;;5.30;3.30;;;;;;;18.67;43.78;97964.65;223521;183;137508;-77
2023/03/24 18:20:35;;;;;;;4.60;2.90;;;;;;;18.56;44.32;97962.33;223481;183;149661;-80
2023/03/24 18:25:39;;;;;;;135.00;106.50;;;;;;;18.44;44.88;97967.34;223477;183;138312;-75
2023/03/24 18:36:29;;;;;;;4.80;3.60;;;;;;;18.36;45.75;97978.42;223485;182;149658;-77
2023/03/24 18:41:38;;;;;;;5.50;3.70;;;;;;;18.29;46.51;97981.70;223472;182;138179;-77
2023/03/24 18:46:42;;;;;;;6.00;3.60;;;;;;;18.23;47.18;97979.38;223509;183;136675;-77
2023/03/24 18:51:45;;;;;;;5.80;4.00;;;;;;;18.09;48.05;97972.12;223467;183;149302;-76
2023/03/24 18:56:48;;;;;;;8.00;4.00;;;;;;;17.94;48.53;97966.50;223476;183;138451;-77
2023/03/24 19:01:53;;;;;;;7.30;4.00;;;;;;;17.83;48.68;97979.55;223592;183;136938;-77
2023/03/24 19:06:56;;;;;;;13.40;5.00;;;;;;;17.71;49.03;97991.04;223580;183;149435;-76
2023/03/24 19:12:00;;;;;;;7.80;5.00;;;;;;;17.61;49.67;97995.38;223561;182;138320;-77
2023/03/24 19:17:05;;;;;;;7.70;5.00;;;;;;;17.51;49.96;97999.14;223486;183;137184;-71
2023/03/24 19:22:09;;;;;;;6.70;5.60;;;;;;;17.43;50.31;98002.66;223561;182;149785;-80
2023/03/24 19:27:12;;;;;;;8.00;4.90;;;;;;;17.36;50.54;98001.13;223565;183;139046;-77
2023/03/24 19:32:16;;;;;;;8.20;5.40;;;;;;;17.26;51.04;98013.09;223613;183;137529;-79
2023/03/24 19:37:21;;;;;;;8.70;5.30;;;;;;;17.21;51.27;97993.07;223603;183;149043;-76
2023/03/24 19:42:27;;;;;;;;;;;;;;;17.13;51.50;97951.27;223686;183;138275;-76
2023/03/24 19:59:39;;;;;;;;;;;;;;;16.99;51.61;97958.11;223586;183;139027;-77
2023/03/24 20:04:43;;;;;;;8.00;5.00;;;;;;;16.95;51.60;97960.11;223412;182;134849;-75
2023/03/24 20:09:47;;;;;;;9.30;4.90;;;;;;;16.92;51.55;97963.57;223572;183;149575;-77
2023/03/24 20:14:51;;;;;;;7.50;5.30;;;;;;;16.89;51.54;97957.55;223219;183;139006;-75
2023/03/24 20:19:55;;;;;;;8.20;4.90;;;;;;;16.89;51.54;97943.20;223616;183;137046;-74
2023/03/24 20:24:59;;;;;;;6.50;5.10;;;;;;;16.89;51.43;97935.01;223646;182;148949;-75
2023/03/24 20:30:05;;;;;;;5.00;4.40;;;;;;;16.87;51.39;97934.08;223619;183;138369;-73
2023/03/24 20:35:09;;;;;;;;;;;;;;;16.85;51.29;97942.74;223697;183;137548;-73
2023/03/24 20:40:16;;;;;;;7.60;4.60;;;;;;;16.85;51.14;97949.52;223769;183;148978;-73
2023/03/24 20:45:19;;;;;;;8.90;4.80;;;;;;;16.86;51.17;97955.04;223548;183;139261;-74
2023/03/24 20:50:23;;;;;;;8.00;4.60;;;;;;;16.82;51.20;97960.73;222797;182;137534;-74
2023/03/24 20:55:27;;;;;;;8.00;5.40;;;;;;;16.73;51.45;97963.49;223724;183;148889;-74
2023/03/24 21:00:30;;;;;;;7.90;5.50;;;;;;;16.72;51.51;97973.13;223639;183;139170;-74
2023/03/24 21:05:34;;;;;;;11.90;6.30;;;;;;;16.69;51.60;97975.02;223648;183;136944;-73
2023/03/24 21:10:37;;;;;;;9.80;6.10;;;;;;;16.71;51.58;97975.54;222307;182;149678;-74
2023/03/24 21:15:43;;;;;;;9.40;6.20;;;;;;;16.72;51.61;97976.14;223563;183;139743;-75
2023/03/24 21:20:54;;;;;;;9.70;5.60;;;;;;;16.75;51.57;97975.31;223236;183;137963;-74
2023/03/24 21:25:57;;;;;;;9.70;5.90;;;;;;;16.72;51.85;97976.85;223687;183;148558;-74
2023/03/24 21:31:18;;;;;;;7.80;5.50;;;;;;;16.69;52.21;97981.13;223609;183;138735;-74
2023/03/24 21:42:48;;;;;;;10.00;6.70;;;;;;;16.70;52.65;97966.16;223967;216;148799;-74
2023/03/24 21:47:53;;;;;;;9.10;5.70;;;;;;;16.68;52.58;97963.16;223603;182;139778;-74
2023/03/24 21:52:58;;;;;;;8.30;5.90;;;;;;;16.65;52.73;97956.42;223612;183;136841;-74
2023/03/24 21:58:02;;;;;;;8.50;6.10;;;;;;;16.64;52.73;97959.39;223661;183;149030;-74
2023/03/24 22:03:07;;;;;;;8.90;5.60;;;;;;;16.64;52.86;97959.63;223598;182;138886;-75
2023/03/24 22:08:11;;;;;;;11.20;6.60;;;;;;;16.60;52.91;97963.21;223662;183;137128;-74
2023/03/24 22:13:14;;;;;;;9.80;6.00;;;;;;;16.58;53.21;97962.80;221990;183;150547;-73
2023/03/24 22:18:17;;;;;;;9.70;6.80;;;;;;;16.52;53.35;97964.78;223645;183;138892;-73
2023/03/24 22:23:21;;;;;;;12.60;7.30;;;;;;;16.46;53.73;97964.75;223734;183;137212;-74
2023/03/24 22:28:25;;;;;;;11.30;8.10;;;;;;;16.36;54.14;97962.33;223123;182;149843;-73
2023/03/24 22:33:28;;;;;;;14.60;8.70;;;;;;;16.29;54.44;97965.04;223591;183;145064;-73
2023/03/24 22:38:38;;;;;;;15.50;9.80;;;;;;;16.23;54.61;97965.67;223678;179;136999;-74
2023/03/24 22:43:41;;;;;;;14.70;9.20;;;;;;;16.17;54.91;97960.30;223608;183;149008;-73
2023/03/24 22:55:05;;;;;;;13.60;8.90;;;;;;;16.19;54.93;97941.91;223726;182;138228;-73
2023/03/24 23:00:08;;;;;;;12.50;8.70;;;;;;;16.13;55.09;97938.92;223502;183;149037;-73
2023/03/24 23:05:12;;;;;;;13.70;9.50;;;;;;;16.06;55.14;97932.77;223576;183;138679;-73
2023/03/24 23:10:16;;;;;;;13.40;9.00;;;;;;;16.07;55.32;97933.09;223307;183;137202;-74
2023/03/24 23:15:21;;;;;;;11.00;8.60;;;;;;;16.03;55.24;97933.14;223580;182;149446;-75
2023/03/24 23:20:28;;;;;;;11.60;8.50;;;;;;;15.99;55.31;97934.06;223624;182;138404;-75
2023/03/24 23:25:33;;;;;;;14.20;8.40;;;;;;;15.94;55.25;97930.67;223669;182;137096;-74
2023/03/24 23:30:37;;;;;;;11.70;8.00;;;;;;;15.87;55.33;97932.12;223627;182;148994;-74
2023/03/24 23:35:40;;;;;;;12.50;8.60;;;;;;;15.81;55.49;97934.16;223533;183;138642;-74
2023/03/24 23:40:44;;;;;;;15.30;9.20;;;;;;;15.70;55.71;97934.16;223700;183;137358;-74
2023/03/24 23:45:56;;;;;;;11.20;8.90;;;;;;;15.58;56.02;97927.48;223632;182;148599;-76
2023/03/24 23:51:03;;;;;;;13.70;8.80;;;;;;;15.54;56.28;97919.00;223585;183;138894;-74
2023/03/24 23:56:09;;;;;;;12.10;8.80;;;;;;;15.48;56.43;97915.23;223625;183;137692;-74
